Time;durP1;ratioP1;P1;durP2;ratioP2;P2;SDS_P1;SDS_P2;PMS_P1;PMS_P2;Temp;Humidity;BMP_temperature;BMP_pressure;BME280_temperature;BME280_humidity;BME280_pressure;Samples;Min_cycle;Max_cycle;Signal;HPM_P1;HPM_P2
2023/08/24 00:02:07;;;;;;;11.80;9.70;;;23.50;99.90;;;;;;5042369;28;20647;-55
2023/08/24 00:04:35;;;;;;;10.13;9.33;;;23.40;99.90;;;;;;5052081;28;20275;-55
2023/08/24 00:07:02;;;;;;;11.03;10.23;;;23.40;99.90;;;;;;5051533;28;20233;-56
2023/08/24 00:09:30;;;;;;;15.10;11.73;;;23.40;99.90;;;;;;5051809;28;20252;-55
2023/08/24 00:11:59;;;;;;;11.93;11.00;;;23.50;99.90;;;;;;5051476;28;20194;-55
2023/08/24 00:14:26;;;;;;;11.97;10.87;;;23.50;99.90;;;;;;5048633;28;20257;-55
2023/08/24 00:16:53;;;;;;;12.53;11.47;;;23.50;99.90;;;;;;5047575;28;20758;-55
2023/08/24 00:19:20;;;;;;;10.07;9.33;;;23.50;99.90;;;;;;5052591;28;20194;-55
2023/08/24 00:21:47;;;;;;;11.60;10.50;;;23.50;99.90;;;;;;5051752;28;20202;-55
2023/08/24 00:24:14;;;;;;;11.27;10.27;;;23.50;99.90;;;;;;5050181;28;20651;-56
2023/08/24 00:26:40;;;;;;;11.27;10.10;;;23.40;99.90;;;;;;5051495;28;20222;-55
2023/08/24 00:29:09;;;;;;;10.27;9.23;;;23.40;99.90;;;;;;5042105;28;20224;-55
2023/08/24 00:31:36;;;;;;;11.00;9.73;;;23.30;99.90;;;;;;5046509;28;20202;-56
2023/08/24 00:34:03;;;;;;;11.27;10.10;;;23.30;99.90;;;;;;5049112;28;20263;-56
2023/08/24 00:36:30;;;;;;;10.80;9.80;;;23.30;99.90;;;;;;5051718;28;20276;-55
2023/08/24 00:38:58;;;;;;;10.50;9.70;;;23.30;99.90;;;;;;5047841;28;20206;-55
2023/08/24 00:41:25;;;;;;;10.60;9.70;;;23.30;99.90;;;;;;5045446;28;20232;-55
2023/08/24 00:43:52;;;;;;;13.90;10.73;;;23.30;99.90;;;;;;5044003;28;20198;-55
2023/08/24 00:46:22;;;;;;;10.83;9.73;;;23.20;99.90;;;;;;5051502;28;20248;-55
2023/08/24 00:48:51;;;;;;;11.00;9.93;;;23.20;99.90;;;;;;5051336;28;20722;-55
2023/08/24 00:51:20;;;;;;;13.30;10.43;;;23.20;99.90;;;;;;5049769;28;20453;-55
2023/08/24 00:53:47;;;;;;;10.93;10.10;;;23.20;99.90;;;;;;5029379;28;20206;-55
2023/08/24 00:56:14;;;;;;;13.50;11.43;;;23.30;99.90;;;;;;5049082;28;20221;-55
2023/08/24 00:58:41;;;;;;;14.00;12.77;;;23.20;99.90;;;;;;5048730;28;20271;-56
2023/08/24 01:01:09;;;;;;;11.03;10.03;;;23.20;99.90;;;;;;5043401;28;20265;-55
2023/08/24 01:03:37;;;;;;;12.03;10.97;;;23.20;99.90;;;;;;5047615;28;20209;-55
2023/08/24 01:06:06;;;;;;;10.43;9.67;;;23.10;99.90;;;;;;5047200;28;20229;-55
2023/08/24 01:08:33;;;;;;;11.33;10.20;;;23.10;99.90;;;;;;5049710;28;20683;-55
2023/08/24 01:11:08;;;;;;;13.27;10.57;;;23.00;99.90;;;;;;5051657;28;20591;-56
2023/08/24 01:13:42;;;;;;;11.23;10.10;;;23.00;99.90;;;;;;5045141;28;20202;-55
2023/08/24 01:16:15;;;;;;;12.30;11.03;;;23.00;99.90;;;;;;5043772;28;20248;-56
2023/08/24 01:18:44;;;;;;;11.83;10.57;;;22.90;99.90;;;;;;5049041;28;20279;-55
2023/08/24 01:21:14;;;;;;;11.30;10.30;;;22.90;99.90;;;;;;5048427;28;20208;-55
2023/08/24 01:23:49;;;;;;;9.53;8.57;;;22.90;99.90;;;;;;5049741;28;20721;-55
2023/08/24 01:26:18;;;;;;;11.70;10.50;;;22.80;99.90;;;;;;5049372;28;20225;-55
2023/08/24 01:28:46;;;;;;;11.50;10.30;;;22.80;99.90;;;;;;5070884;22;20722;-56
2023/08/24 01:31:15;;;;;;;10.43;9.73;;;22.70;99.90;;;;;;5048452;28;20300;-56
2023/08/24 01:33:42;;;;;;;10.60;9.60;;;22.70;99.90;;;;;;5045520;28;20281;-56
2023/08/24 01:36:11;;;;;;;10.07;9.03;;;22.70;99.90;;;;;;5048611;28;20259;-56
2023/08/24 01:38:38;;;;;;;11.43;9.40;;;22.70;99.90;;;;;;5049295;28;20214;-56
2023/08/24 01:41:12;;;;;;;11.40;10.30;;;22.60;99.90;;;;;;5050255;28;20764;-56
2023/08/24 01:43:44;;;;;;;12.77;9.10;;;22.70;99.90;;;;;;5047006;28;20287;-56
2023/08/24 01:46:15;;;;;;;10.77;9.67;;;22.70;99.90;;;;;;5050312;28;20202;-56
2023/08/24 01:48:43;;;;;;;12.13;10.30;;;22.70;99.90;;;;;;5049221;28;20280;-56
2023/08/24 01:51:10;;;;;;;11.63;10.47;;;22.70;99.90;;;;;;5041564;28;20201;-56
2023/08/24 01:53:38;;;;;;;9.93;8.87;;;22.70;99.90;;;;;;5045838;28;20300;-56
2023/08/24 01:56:10;;;;;;;10.50;9.47;;;22.60;99.90;;;;;;5054850;28;20203;-56
2023/08/24 01:58:37;;;;;;;11.10;9.97;;;22.70;99.90;;;;;;5048113;28;20324;-55
2023/08/24 02:01:06;;;;;;;9.83;9.10;;;22.60;99.90;;;;;;5054981;28;20566;-58
2023/08/24 02:03:33;;;;;;;10.23;9.40;;;22.60;99.90;;;;;;5048353;28;20663;-56
2023/08/24 02:06:00;;;;;;;9.40;8.60;;;22.50;99.90;;;;;;5050102;28;20198;-56
2023/08/24 02:08:27;;;;;;;11.03;9.90;;;22.40;99.90;;;;;;5047457;28;20652;-55
2023/08/24 02:10:53;;;;;;;11.30;10.20;;;22.50;99.90;;;;;;5050130;28;20194;-56
2023/08/24 02:13:20;;;;;;;10.83;9.73;;;22.50;99.90;;;;;;5053016;28;20219;-56
2023/08/24 02:15:47;;;;;;;10.20;9.23;;;22.60;99.90;;;;;;5052561;28;20197;-56
2023/08/24 02:18:16;;;;;;;14.97;9.80;;;22.50;99.90;;;;;;5047014;28;20263;-56
2023/08/24 02:20:42;;;;;;;11.17;9.47;;;22.60;99.90;;;;;;5049876;28;20737;-56
2023/08/24 02:23:09;;;;;;;10.30;8.73;;;22.60;99.90;;;;;;5048258;28;20198;-56
2023/08/24 02:25:42;;;;;;;12.03;10.00;;;22.50;99.90;;;;;;5050027;28;20255;-55
2023/08/24 02:28:09;;;;;;;11.10;9.90;;;22.60;99.90;;;;;;5048827;28;20286;-56
2023/08/24 02:30:38;;;;;;;11.60;10.53;;;22.50;99.90;;;;;;5048071;28;20255;-56
2023/08/24 02:33:05;;;;;;;10.07;9.17;;;22.40;99.90;;;;;;5049608;28;20198;-56
2023/08/24 02:35:33;;;;;;;10.13;9.13;;;22.40;99.90;;;;;;5049657;28;20201;-56
2023/08/24 02:38:00;;;;;;;10.20;9.47;;;22.30;99.90;;;;;;5053455;28;20202;-56
2023/08/24 02:40:27;;;;;;;10.20;9.03;;;22.30;99.90;;;;;;5053926;28;20320;-56
2023/08/24 02:42:54;;;;;;;10.03;9.13;;;22.30;99.90;;;;;;5051076;28;20205;-56
2023/08/24 02:45:21;;;;;;;10.80;9.80;;;22.30;99.90;;;;;;5053365;28;20230;-55
2023/08/24 02:47:48;;;;;;;12.03;10.80;;;22.30;99.90;;;;;;5051841;28;20221;-55
2023/08/24 02:50:15;;;;;;;12.67;10.80;;;22.30;99.90;;;;;;5052895;28;20267;-56
2023/08/24 02:52:44;;;;;;;13.90;10.70;;;22.30;99.90;;;;;;5053219;28;20202;-56
2023/08/24 02:55:11;;;;;;;11.63;10.20;;;22.20;99.90;;;;;;5053572;28;20267;-56
2023/08/24 02:57:38;;;;;;;14.83;11.00;;;22.10;99.90;;;;;;5053513;28;20209;-56
2023/08/24 03:00:07;;;;;;;9.40;8.70;;;22.00;99.90;;;;;;5052105;28;20272;-56
2023/08/24 03:02:34;;;;;;;10.30;9.37;;;22.10;99.90;;;;;;5054816;28;20202;-56
2023/08/24 03:05:01;;;;;;;10.70;8.33;;;22.00;99.90;;;;;;5050574;28;20202;-55
2023/08/24 03:07:28;;;;;;;12.50;9.57;;;22.00;99.90;;;;;;5053158;28;20214;-56
2023/08/24 03:09:56;;;;;;;9.93;9.07;;;22.00;99.90;;;;;;5052670;28;20737;-56
2023/08/24 03:12:23;;;;;;;8.23;7.50;;;22.00;99.90;;;;;;5051764;28;20202;-56
2023/08/24 03:14:52;;;;;;;9.13;8.43;;;22.00;99.90;;;;;;5051412;28;20202;-56
2023/08/24 03:17:19;;;;;;;10.10;8.93;;;22.00;99.90;;;;;;5052720;28;20204;-55
2023/08/24 03:19:46;;;;;;;10.63;9.63;;;22.00;99.90;;;;;;5055036;28;20287;-57
2023/08/24 03:22:13;;;;;;;9.10;8.33;;;22.00;99.90;;;;;;5052867;28;20264;-56
2023/08/24 03:24:40;;;;;;;10.10;9.07;;;22.00;99.90;;;;;;5051800;28;20209;-56
2023/08/24 03:27:08;;;;;;;11.50;9.70;;;22.00;99.90;;;;;;5051555;28;20624;-56
2023/08/24 03:29:35;;;;;;;12.07;9.17;;;22.00;99.90;;;;;;5050775;28;20303;-56
2023/08/24 03:32:02;;;;;;;10.50;8.57;;;22.00;99.90;;;;;;5051980;28;20283;-56
2023/08/24 03:34:29;;;;;;;12.33;8.97;;;22.00;99.90;;;;;;5050483;28;20205;-56
2023/08/24 03:36:56;;;;;;;8.83;8.23;;;22.00;99.90;;;;;;5051608;28;20292;-56
2023/08/24 03:39:23;;;;;;;10.27;9.23;;;22.00;99.90;;;;;;5051232;28;20229;-56
2023/08/24 03:41:50;;;;;;;8.90;8.27;;;22.00;99.90;;;;;;5051459;28;20198;-56
2023/08/24 03:44:18;;;;;;;9.10;8.30;;;21.90;99.90;;;;;;5052221;28;20225;-56
2023/08/24 03:46:45;;;;;;;9.37;8.67;;;21.90;99.90;;;;;;5050795;28;20256;-56
2023/08/24 03:49:12;;;;;;;11.33;9.00;;;21.90;99.90;;;;;;5052196;28;20645;-56
2023/08/24 03:51:39;;;;;;;9.33;8.40;;;21.90;99.90;;;;;;5049767;28;20628;-55
2023/08/24 03:54:06;;;;;;;8.77;8.07;;;21.90;99.90;;;;;;5052130;28;20198;-56
2023/08/24 03:56:33;;;;;;;8.10;7.33;;;21.90;99.90;;;;;;5052625;28;20201;-56
2023/08/24 03:59:00;;;;;;;10.67;9.70;;;21.90;99.90;;;;;;5052175;28;20263;-56
2023/08/24 04:01:28;;;;;;;8.27;7.50;;;21.80;99.90;;;;;;5049599;28;20267;-56
2023/08/24 04:03:55;;;;;;;8.83;8.07;;;21.90;99.90;;;;;;5051917;28;20202;-56
2023/08/24 04:06:22;;;;;;;8.37;7.67;;;21.90;99.90;;;;;;5054806;28;20210;-56
2023/08/24 04:08:49;;;;;;;8.57;7.83;;;21.90;99.90;;;;;;5051585;28;20764;-56
2023/08/24 04:11:16;;;;;;;8.00;7.30;;;21.80;99.90;;;;;;5052167;28;20729;-56
2023/08/24 04:13:43;;;;;;;11.60;8.40;;;21.80;99.90;;;;;;5047727;28;20675;-56
2023/08/24 04:16:10;;;;;;;7.40;7.00;;;21.70;99.90;;;;;;5051887;28;20202;-56
2023/08/24 04:18:40;;;;;;;7.63;7.23;;;21.70;99.90;;;;;;5051974;28;20221;-56
2023/08/24 04:21:07;;;;;;;12.90;8.17;;;21.70;99.90;;;;;;5054183;28;20229;-56
2023/08/24 04:23:34;;;;;;;8.80;8.03;;;21.60;99.90;;;;;;5051257;28;20205;-56
2023/08/24 04:26:01;;;;;;;12.57;8.70;;;21.50;99.90;;;;;;5050756;28;20201;-56
2023/08/24 04:28:28;;;;;;;8.20;7.50;;;21.50;99.90;;;;;;5046155;28;20221;-55
2023/08/24 04:30:56;;;;;;;11.37;8.87;;;21.50;99.90;;;;;;5044385;28;20201;-56
2023/08/24 04:33:24;;;;;;;8.37;7.77;;;21.50;99.90;;;;;;5041868;28;20241;-56
2023/08/24 04:35:52;;;;;;;8.07;7.27;;;21.50;99.90;;;;;;5031394;28;20256;-55
2023/08/24 04:38:19;;;;;;;9.53;8.17;;;21.50;99.90;;;;;;5042461;28;20251;-56
2023/08/24 04:40:48;;;;;;;8.87;8.07;;;21.40;99.90;;;;;;5048954;28;20225;-56
2023/08/24 04:43:15;;;;;;;7.73;7.13;;;21.30;99.90;;;;;;5044566;28;20834;-55
2023/08/24 04:45:42;;;;;;;9.43;8.77;;;21.30;99.90;;;;;;5042462;28;20202;-57
2023/08/24 04:48:10;;;;;;;8.53;7.73;;;21.20;99.90;;;;;;5047283;28;20217;-56
2023/08/24 04:50:37;;;;;;;8.70;7.83;;;21.20;99.90;;;;;;5049923;28;20197;-56
2023/08/24 04:53:06;;;;;;;8.93;8.13;;;21.30;99.90;;;;;;5042277;28;20206;-56
2023/08/24 04:55:33;;;;;;;12.33;8.30;;;21.30;99.90;;;;;;5047678;28;20285;-56
2023/08/24 04:58:00;;;;;;;8.73;8.00;;;21.40;99.90;;;;;;5048386;28;20259;-56
2023/08/24 05:00:27;;;;;;;8.87;8.13;;;21.50;99.90;;;;;;5048762;28;20699;-56
2023/08/24 05:02:54;;;;;;;9.27;8.13;;;21.60;99.90;;;;;;5046165;28;20234;-56
2023/08/24 05:05:21;;;;;;;8.50;7.67;;;21.70;99.90;;;;;;5034123;28;20262;-55
2023/08/24 05:07:48;;;;;;;9.70;8.63;;;21.80;99.90;;;;;;5042658;28;20272;-55
2023/08/24 05:10:16;;;;;;;9.73;8.20;;;21.90;99.90;;;;;;5048234;28;20217;-55
2023/08/24 05:12:43;;;;;;;9.27;8.37;;;22.00;99.90;;;;;;5045335;28;20291;-56
2023/08/24 05:15:11;;;;;;;10.03;7.93;;;22.00;99.90;;;;;;5047410;28;20284;-56
2023/08/24 05:17:38;;;;;;;8.10;6.63;;;22.10;99.90;;;;;;5049080;28;20198;-56
2023/08/24 05:20:06;;;;;;;10.80;8.27;;;22.10;99.90;;;;;;5045135;28;20218;-55
2023/08/24 05:22:33;;;;;;;8.43;7.70;;;22.20;99.90;;;;;;5049274;28;20288;-56
2023/08/24 05:25:01;;;;;;;9.60;8.10;;;22.30;99.90;;;;;;5046901;28;20235;-56
2023/08/24 05:27:30;;;;;;;9.03;8.10;;;22.40;99.90;;;;;;5041980;28;20244;-56
2023/08/24 05:29:57;;;;;;;8.40;7.60;;;22.60;99.90;;;;;;5046861;28;20272;-56
2023/08/24 05:32:24;;;;;;;9.97;9.07;;;23.00;99.90;;;;;;5042859;28;20190;-56
2023/08/24 05:34:51;;;;;;;10.27;8.80;;;23.30;99.90;;;;;;5046416;28;20266;-56
2023/08/24 05:37:19;;;;;;;10.33;8.23;;;23.60;99.90;;;;;;5043334;28;20202;-56
2023/08/24 05:39:45;;;;;;;8.87;8.07;;;24.00;99.90;;;;;;5046098;28;20765;-56
2023/08/24 05:42:12;;;;;;;7.70;6.97;;;24.50;99.90;;;;;;5042822;28;20666;-56
2023/08/24 05:44:41;;;;;;;12.77;8.77;;;24.80;99.90;;;;;;5048598;28;20202;-56
2023/08/24 05:47:08;;;;;;;8.30;7.63;;;25.20;99.90;;;;;;5048373;28;20194;-56
2023/08/24 05:49:35;;;;;;;9.27;7.47;;;25.50;99.90;;;;;;5048110;28;20221;-59
2023/08/24 05:52:02;;;;;;;7.60;7.00;;;25.90;99.90;;;;;;5045155;28;20526;-56
2023/08/24 05:54:29;;;;;;;9.35;7.97;;;26.30;99.90;;;;;;5047955;28;20738;-56
2023/08/24 05:57:00;;;;;;;9.03;8.07;;;26.50;99.90;;;;;;5044196;28;20359;-56
2023/08/24 05:59:27;;;;;;;7.50;6.78;;;26.70;99.90;;;;;;5041141;28;20733;-56
2023/08/24 06:01:55;;;;;;;7.00;6.50;;;27.20;99.90;;;;;;5045687;28;20815;-56
2023/08/24 06:04:23;;;;;;;9.75;7.82;;;27.70;99.90;;;;;;5046750;28;20607;-56
2023/08/24 06:06:50;;;;;;;7.38;6.68;;;28.20;99.90;;;;;;5044333;28;20205;-55
2023/08/24 06:09:17;;;;;;;7.80;7.20;;;28.50;99.90;;;;;;5042318;28;20367;-56
2023/08/24 06:11:44;;;;;;;10.95;8.57;;;28.70;99.90;;;;;;5048303;28;20252;-56
2023/08/24 06:14:10;;;;;;;9.15;7.22;;;29.00;99.90;;;;;;5040703;28;20619;-55
2023/08/24 06:16:38;;;;;;;11.45;8.55;;;29.40;99.90;;;;;;5043550;28;20202;-55
2023/08/24 06:19:06;;;;;;;7.90;6.65;;;29.60;99.90;;;;;;5048173;28;20268;-58
2023/08/24 06:21:33;;;;;;;9.07;6.93;;;30.00;99.90;;;;;;5038483;28;20617;-56
2023/08/24 06:24:00;;;;;;;13.95;6.60;;;30.50;99.90;;;;;;5044423;28;20205;-54
2023/08/24 06:26:27;;;;;;;20.02;7.50;;;30.70;99.90;;;;;;5038328;28;20717;-57
2023/08/24 06:28:55;;;;;;;11.32;6.28;;;30.50;99.90;;;;;;5041956;28;20226;-57
2023/08/24 06:31:22;;;;;;;9.77;5.57;;;30.60;99.90;;;;;;5046758;28;20190;-58
2023/08/24 06:33:51;;;;;;;12.75;6.25;;;30.90;99.90;;;;;;5048263;28;20225;-58
2023/08/24 06:36:19;;;;;;;13.20;6.63;;;31.40;99.90;;;;;;5044491;28;20255;-57
2023/08/24 06:38:46;;;;;;;8.05;5.68;;;31.40;99.90;;;;;;5048591;28;20291;-57
2023/08/24 06:41:13;;;;;;;10.68;6.20;;;31.50;99.90;;;;;;5047668;28;20263;-56
2023/08/24 06:43:40;;;;;;;10.55;5.63;;;31.60;99.90;;;;;;5046775;28;20263;-57
2023/08/24 06:46:08;;;;;;;8.65;6.50;;;32.20;99.90;;;;;;5037534;28;20202;-57
2023/08/24 06:48:35;;;;;;;7.78;5.63;;;32.70;99.90;;;;;;5029476;28;20326;-57
2023/08/24 06:51:02;;;;;;;8.82;6.00;;;33.00;99.90;;;;;;5029453;28;20722;-55
2023/08/24 06:53:30;;;;;;;11.65;6.57;;;33.10;99.90;;;;;;5029448;28;20284;-57
2023/08/24 06:55:58;;;;;;;7.22;5.50;;;33.50;99.90;;;;;;5048550;28;20202;-57
2023/08/24 06:58:25;;;;;;;8.07;5.85;;;33.90;99.90;;;;;;5047297;28;20768;-57
2023/08/24 07:00:52;;;;;;;8.77;5.70;;;34.10;99.90;;;;;;5047969;28;20204;-57
2023/08/24 07:03:19;;;;;;;5.93;5.22;;;34.10;99.90;;;;;;5044608;28;20198;-58
2023/08/24 07:05:47;;;;;;;7.55;5.93;;;34.40;99.90;;;;;;5042523;28;20205;-57
2023/08/24 07:08:14;;;;;;;13.15;6.53;;;34.40;99.90;;;;;;5046586;28;20193;-57
2023/08/24 07:10:43;;;;;;;11.70;6.32;;;34.50;99.90;;;;;;5029663;28;20203;-57
2023/08/24 07:13:13;;;;;;;16.60;7.00;;;34.80;99.90;;;;;;5029401;28;20203;-57
2023/08/24 07:15:40;;;;;;;8.05;6.35;;;34.80;99.90;;;;;;5029553;28;20206;-57
2023/08/24 07:18:08;;;;;;;12.40;6.07;;;34.10;99.90;;;;;;5034572;28;20336;-57
2023/08/24 07:20:36;;;;;;;11.75;6.45;;;34.00;99.90;;;;;;5044994;28;20294;-57
2023/08/24 07:23:03;;;;;;;7.00;5.55;;;34.10;99.90;;;;;;5051356;28;20194;-57
2023/08/24 07:25:30;;;;;;;12.65;6.28;;;34.30;99.90;;;;;;5042617;28;20214;-57
2023/08/24 07:27:59;;;;;;;11.77;7.25;;;34.10;99.90;;;;;;5050463;28;20206;-58
2023/08/24 07:30:26;;;;;;;12.50;6.32;;;34.10;99.90;;;;;;5044460;28;20247;-57
2023/08/24 07:32:54;;;;;;;12.13;6.38;;;34.20;99.90;;;;;;5049772;28;20675;-56
2023/08/24 07:35:24;;;;;;;13.98;6.35;;;34.20;99.90;;;;;;5049022;28;20197;-55
2023/08/24 07:37:52;;;;;;;12.52;6.68;;;34.40;99.90;;;;;;5056078;28;20280;-55
2023/08/24 07:40:19;;;;;;;12.20;5.82;;;34.70;99.90;;;;;;5046592;28;20710;-58
2023/08/24 07:42:46;;;;;;;6.50;5.90;;;34.50;99.90;;;;;;5039999;28;20259;-55
2023/08/24 07:45:15;;;;;;;9.43;5.65;;;35.00;99.90;;;;;;5046304;28;20643;-55
2023/08/24 07:47:42;;;;;;;10.18;6.38;;;35.40;99.90;;;;;;5042240;28;20199;-56
2023/08/24 07:50:10;;;;;;;6.68;6.10;;;35.50;99.00;;;;;;5035933;28;20224;-56
2023/08/24 07:52:38;;;;;;;7.53;6.35;;;35.40;99.00;;;;;;5051805;28;20190;-56
2023/08/24 07:55:06;;;;;;;8.35;6.30;;;36.00;98.90;;;;;;5056927;28;20259;-55
2023/08/24 07:57:34;;;;;;;10.20;6.78;;;36.40;99.20;;;;;;5057203;28;20206;-56
2023/08/24 08:00:02;;;;;;;8.00;6.07;;;36.20;97.40;;;;;;5051278;28;20233;-55
2023/08/24 08:02:32;;;;;;;9.40;5.90;;;36.00;98.20;;;;;;5050228;28;20293;-56
2023/08/24 08:04:59;;;;;;;11.88;6.47;;;36.60;98.30;;;;;;5050301;28;20198;-56
2023/08/24 08:07:26;;;;;;;11.75;7.03;;;36.60;95.00;;;;;;5052612;28;20664;-56
2023/08/24 08:09:53;;;;;;;6.78;5.75;;;36.90;94.90;;;;;;5046784;28;20229;-55
2023/08/24 08:12:20;;;;;;;7.35;5.20;;;36.90;95.60;;;;;;5052788;28;20206;-56
2023/08/24 08:14:47;;;;;;;10.98;5.78;;;37.00;94.10;;;;;;5052659;28;20198;-56
2023/08/24 08:17:14;;;;;;;9.70;5.40;;;37.30;93.20;;;;;;5052467;28;20198;-56
2023/08/24 08:19:43;;;;;;;13.45;6.95;;;37.70;91.90;;;;;;5098346;22;20282;-58
2023/08/24 08:22:10;;;;;;;15.15;6.30;;;37.50;94.20;;;;;;5028668;28;20249;-57
2023/08/24 08:24:37;;;;;;;14.63;6.93;;;37.60;93.70;;;;;;5028621;28;20198;-57
2023/08/24 08:27:04;;;;;;;13.98;6.80;;;37.70;91.90;;;;;;5032892;28;20276;-57
2023/08/24 08:29:31;;;;;;;11.10;6.45;;;37.80;90.40;;;;;;5026995;28;20231;-58
2023/08/24 08:31:58;;;;;;;12.25;7.13;;;38.00;92.10;;;;;;5013171;28;20254;-58
2023/08/24 08:34:25;;;;;;;13.27;5.80;;;38.00;92.50;;;;;;5012911;28;20210;-57
2023/08/24 08:36:54;;;;;;;11.25;6.15;;;38.20;91.70;;;;;;5012942;28;20203;-57
2023/08/24 08:39:21;;;;;;;8.13;5.00;;;38.30;91.60;;;;;;5011512;28;20629;-57
2023/08/24 08:41:48;;;;;;;7.22;5.15;;;38.60;90.00;;;;;;5018556;28;20195;-58
2023/08/24 08:44:16;;;;;;;9.43;7.22;;;38.50;90.10;;;;;;5019576;28;20570;-58
2023/08/24 08:46:45;;;;;;;9.57;7.93;;;37.80;94.60;;;;;;5024206;28;20207;-57
2023/08/24 08:49:16;;;;;;;9.40;7.18;;;37.00;96.40;;;;;;5027446;28;20219;-55
2023/08/24 08:51:43;;;;;;;10.20;9.20;;;35.50;98.40;;;;;;5025127;28;20238;-55
2023/08/24 08:54:13;;;;;;;7.45;7.00;;;35.60;99.00;;;;;;5023601;28;20199;-55
2023/08/24 08:56:41;;;;;;;13.20;8.48;;;35.70;98.70;;;;;;5027768;28;20221;-55
2023/08/24 08:59:10;;;;;;;8.25;7.65;;;35.10;99.90;;;;;;5017427;28;20199;-55
2023/08/24 09:01:39;;;;;;;10.25;7.72;;;35.40;99.90;;;;;;5017803;28;20710;-55
2023/08/24 09:04:08;;;;;;;8.57;7.85;;;35.10;99.90;;;;;;5009326;28;20196;-55
2023/08/24 09:06:36;;;;;;;11.20;8.23;;;35.50;99.90;;;;;;5012624;28;20198;-54
2023/08/24 09:09:04;;;;;;;9.18;8.48;;;35.00;99.90;;;;;;5012363;28;20241;-57
2023/08/24 09:11:34;;;;;;;9.60;8.80;;;35.10;99.90;;;;;;5012390;28;20199;-57
2023/08/24 09:14:01;;;;;;;10.20;9.23;;;35.50;99.90;;;;;;5012147;28;20203;-57
2023/08/24 09:16:31;;;;;;;9.40;8.60;;;34.90;99.90;;;;;;5012356;28;20207;-57
2023/08/24 09:18:58;;;;;;;9.73;8.93;;;34.30;99.90;;;;;;5023018;28;20672;-57
2023/08/24 09:21:26;;;;;;;8.85;8.20;;;34.00;99.90;;;;;;5017584;28;20253;-57
2023/08/24 09:23:57;;;;;;;9.77;9.05;;;34.10;99.90;;;;;;5028466;28;20681;-57
2023/08/24 09:26:35;;;;;;;12.45;11.18;;;34.10;99.90;;;;;;5027446;28;20599;-54
2023/08/24 09:29:13;;;;;;;12.55;11.32;;;33.40;99.90;;;;;;5029615;28;20202;-54
2023/08/24 09:31:40;;;;;;;10.15;9.40;;;33.30;99.90;;;;;;5012374;28;20210;-54
2023/08/24 09:34:08;;;;;;;11.30;9.30;;;33.80;99.90;;;;;;5017022;28;20196;-53
2023/08/24 09:36:35;;;;;;;10.48;9.77;;;34.10;99.90;;;;;;5020326;28;20202;-54
2023/08/24 09:39:06;;;;;;;13.07;11.07;;;34.30;99.90;;;;;;5021422;28;20195;-54
2023/08/24 09:41:48;;;;;;;11.38;10.32;;;34.10;99.90;;;;;;5030716;28;20213;-53
2023/08/24 09:44:15;;;;;;;10.02;9.02;;;34.10;99.90;;;;;;5019924;28;20288;-54
2023/08/24 09:46:43;;;;;;;11.13;10.00;;;34.60;99.90;;;;;;5029100;28;20285;-56
2023/08/24 09:49:11;;;;;;;10.27;9.38;;;35.20;99.90;;;;;;5026494;28;20570;-57
2023/08/24 09:51:39;;;;;;;10.15;9.35;;;35.30;99.90;;;;;;5010689;28;20580;-56
2023/08/24 09:54:16;;;;;;;9.35;8.75;;;35.80;99.90;;;;;;5007740;28;20524;-57
2023/08/24 09:56:52;;;;;;;9.90;8.98;;;35.70;99.90;;;;;;5011340;28;20203;-58
2023/08/24 09:59:21;;;;;;;9.98;9.23;;;36.10;99.90;;;;;;5011280;28;20223;-60
2023/08/24 10:01:50;;;;;;;11.80;10.82;;;36.10;99.90;;;;;;5011182;28;20661;-59
2023/08/24 10:04:22;;;;;;;10.63;9.73;;;35.70;99.90;;;;;;5011222;28;20203;-60
2023/08/24 10:06:52;;;;;;;10.80;9.77;;;35.80;99.90;;;;;;5011420;28;20282;-63
2023/08/24 10:09:24;;;;;;;11.63;10.85;;;36.00;99.90;;;;;;5010664;28;20294;-64
2023/08/24 10:12:00;;;;;;;10.43;9.45;;;35.90;99.90;;;;;;5011816;28;20711;-65
2023/08/24 10:14:32;;;;;;;10.82;9.88;;;36.10;99.90;;;;;;5012131;28;20202;-65
2023/08/24 10:16:59;;;;;;;10.82;10.02;;;35.80;99.90;;;;;;5018804;28;20198;-66
2023/08/24 10:19:27;;;;;;;12.98;11.40;;;36.40;99.90;;;;;;5032287;28;20234;-63
2023/08/24 10:21:57;;;;;;;10.30;9.20;;;36.10;99.90;;;;;;5005644;28;20262;-63
2023/08/24 10:24:24;;;;;;;9.95;9.02;;;36.20;99.90;;;;;;5009275;28;20277;-62
2023/08/24 10:26:55;;;;;;;11.85;10.65;;;36.30;99.90;;;;;;5010298;28;20203;-63
2023/08/24 10:29:22;;;;;;;10.68;9.63;;;35.90;99.90;;;;;;5008793;28;20623;-63
2023/08/24 10:31:50;;;;;;;9.80;8.95;;;35.70;99.90;;;;;;5010812;28;20202;-64
2023/08/24 10:34:18;;;;;;;9.02;8.32;;;35.60;99.90;;;;;;5010938;28;20210;-57
2023/08/24 10:36:49;;;;;;;14.20;12.00;;;35.70;99.90;;;;;;5008611;28;20254;-57
2023/08/24 10:39:16;;;;;;;10.20;9.50;;;35.50;99.90;;;;;;5003887;28;20215;-57
2023/08/24 10:41:51;;;;;;;10.50;9.77;;;35.20;99.90;;;;;;5011018;28;20293;-57
2023/08/24 10:44:25;;;;;;;9.43;8.65;;;35.70;99.90;;;;;;5010523;28;20249;-57
2023/08/24 10:47:08;;;;;;;9.45;8.75;;;35.70;99.90;;;;;;5011033;28;20218;-57
2023/08/24 10:49:36;;;;;;;9.82;8.75;;;36.10;99.90;;;;;;4993132;28;20227;-61
2023/08/24 10:52:19;;;;;;;12.18;10.93;;;35.90;99.90;;;;;;5002987;28;20203;-61
2023/08/24 10:54:48;;;;;;;11.70;9.43;;;35.80;99.90;;;;;;5011021;28;20302;-62
2023/08/24 10:57:23;;;;;;;12.35;8.93;;;35.30;99.90;;;;;;5015128;28;20203;-61
2023/08/24 11:00:16;;;;;;;9.88;9.02;;;35.40;99.90;;;;;;5014353;28;20597;-62
2023/08/24 11:02:44;;;;;;;11.15;7.88;;;35.00;99.90;;;;;;4999861;28;20250;-60
2023/08/24 11:05:19;;;;;;;10.98;7.88;;;35.00;99.90;;;;;;5007313;28;20669;-61
2023/08/24 11:07:54;;;;;;;9.13;7.82;;;35.00;99.90;;;;;;5014451;28;20199;-61
2023/08/24 11:10:21;;;;;;;14.75;8.10;;;34.80;99.90;;;;;;5015809;28;20313;-61
2023/08/24 11:13:10;;;;;;;14.88;7.75;;;34.20;99.90;;;;;;5014252;28;20210;-62
2023/08/24 11:15:42;;;;;;;8.55;7.07;;;34.30;98.60;;;;;;5019074;28;20198;-62
2023/08/24 11:18:21;;;;;;;12.32;8.43;;;34.50;99.80;;;;;;5015129;28;20745;-64
2023/08/24 11:20:50;;;;;;;14.07;7.45;;;34.50;99.90;;;;;;5011423;28;20262;-62
2023/08/24 11:23:18;;;;;;;16.75;8.38;;;34.20;99.90;;;;;;5014183;28;20199;-64
2023/08/24 11:25:45;;;;;;;11.75;9.15;;;34.00;99.90;;;;;;5014342;28;20223;-62
2023/08/24 11:28:12;;;;;;;14.60;8.82;;;34.00;99.90;;;;;;5014002;28;20207;-62
2023/08/24 11:30:43;;;;;;;9.60;8.65;;;33.70;99.90;;;;;;5013865;28;20692;-63
2023/08/24 11:33:14;;;;;;;9.30;8.15;;;33.60;99.90;;;;;;5008664;28;20311;-59
2023/08/24 11:35:43;;;;;;;9.80;7.75;;;33.70;99.90;;;;;;5012876;28;20294;-60
2023/08/24 11:38:13;;;;;;;8.15;7.38;;;33.40;99.90;;;;;;5003009;28;20199;-60
2023/08/24 11:40:40;;;;;;;10.40;9.40;;;33.30;99.90;;;;;;5012021;28;20592;-61
2023/08/24 11:43:09;;;;;;;13.68;9.70;;;33.20;99.90;;;;;;5013730;28;20498;-59
2023/08/24 11:45:40;;;;;;;9.88;9.02;;;33.20;99.90;;;;;;5011766;28;20573;-61
2023/08/24 11:48:11;;;;;;;10.38;8.88;;;33.10;99.90;;;;;;5009071;28;20202;-61
2023/08/24 11:50:39;;;;;;;9.25;8.32;;;32.80;99.90;;;;;;5012400;28;20281;-62
2023/08/24 11:53:10;;;;;;;11.75;8.88;;;32.70;99.90;;;;;;5013061;28;20207;-60
2023/08/24 11:55:41;;;;;;;13.45;8.13;;;32.70;99.90;;;;;;5013516;28;20611;-62
2023/08/24 11:58:15;;;;;;;15.18;8.30;;;32.90;99.90;;;;;;5013643;28;20289;-63
2023/08/24 12:00:42;;;;;;;9.27;6.95;;;32.90;99.90;;;;;;5010940;28;20336;-61
2023/08/24 12:03:13;;;;;;;9.48;6.75;;;32.80;99.90;;;;;;5005365;28;20559;-59
2023/08/24 12:05:40;;;;;;;9.20;6.47;;;32.60;99.90;;;;;;5013471;28;20266;-60
2023/08/24 12:08:11;;;;;;;9.60;7.72;;;32.80;99.90;;;;;;5023185;28;20210;-59
2023/08/24 12:10:43;;;;;;;9.05;7.57;;;33.00;99.90;;;;;;5000599;28;20250;-55
2023/08/24 12:13:10;;;;;;;8.40;7.60;;;33.00;99.90;;;;;;5001342;28;20219;-54
2023/08/24 12:15:37;;;;;;;8.98;7.40;;;33.10;99.90;;;;;;5008488;28;20289;-55
2023/08/24 12:18:15;;;;;;;8.38;6.93;;;33.30;99.90;;;;;;5013186;28;20203;-55
2023/08/24 12:20:42;;;;;;;8.60;7.53;;;33.30;99.90;;;;;;5012807;28;20227;-57
2023/08/24 12:23:11;;;;;;;9.35;7.80;;;33.40;99.90;;;;;;5010720;28;20262;-56
2023/08/24 12:25:39;;;;;;;6.85;6.18;;;33.40;99.90;;;;;;5011730;28;20253;-56
2023/08/24 12:28:13;;;;;;;8.95;7.00;;;33.40;99.90;;;;;;5010450;28;20349;-56
2023/08/24 12:30:48;;;;;;;12.25;6.97;;;33.40;99.90;;;;;;5012354;28;20271;-57
2023/08/24 12:33:26;;;;;;;8.00;6.65;;;33.50;99.90;;;;;;4993244;28;20293;-57
2023/08/24 12:35:55;;;;;;;13.10;7.00;;;33.60;99.90;;;;;;4993572;28;20211;-57
2023/08/24 12:38:22;;;;;;;11.20;6.10;;;33.60;99.90;;;;;;5004806;28;20727;-57
2023/08/24 12:40:49;;;;;;;11.30;6.90;;;33.10;99.90;;;;;;5010363;28;20270;-56
2023/08/24 12:43:16;;;;;;;69.57;11.13;;;32.60;99.90;;;;;;5003208;28;20251;-55
2023/08/24 12:45:43;;;;;;;13.38;7.40;;;32.00;99.90;;;;;;5012503;28;20253;-54
2023/08/24 12:48:12;;;;;;;25.17;9.35;;;31.70;99.90;;;;;;5011518;28;20222;-54